createdAt,value
2023-03-06T00:03:42.089Z,99091.00
2023-03-06T00:08:45.292Z,99087.40
2023-03-06T00:13:48.343Z,99090.40
2023-03-06T00:18:52.134Z,99084.00
2023-03-06T00:23:55.063Z,99082.00
2023-03-06T00:28:58.276Z,99081.20
2023-03-06T00:34:02.279Z,99082.60
2023-03-06T00:39:05.420Z,99082.60
2023-03-06T00:44:08.616Z,99083.40
2023-03-06T00:49:11.725Z,99075.40
2023-03-06T00:54:17.266Z,99077.60
2023-03-06T00:59:48.435Z,99069.00
2023-03-06T01:04:54.392Z,99071.60
2023-03-06T01:09:57.498Z,99067.00
2023-03-06T01:15:00.626Z,99061.80
2023-03-06T01:20:05.470Z,99059.20
2023-03-06T01:25:09.394Z,99064.40
2023-03-06T01:30:13.312Z,99058.60
2023-03-06T01:35:19.796Z,99051.60
2023-03-06T01:40:23.072Z,99059.00
2023-03-06T01:45:26.328Z,99056.60
2023-03-06T01:50:29.628Z,99057.00
2023-03-06T01:55:35.201Z,99053.80
2023-03-06T02:00:38.556Z,99045.00
2023-03-06T02:05:43.917Z,99042.40
2023-03-06T02:11:05.306Z,99045.20
2023-03-06T02:16:10.294Z,99044.80
2023-03-06T02:21:23.128Z,99036.00
2023-03-06T02:26:28.695Z,99034.00
2023-03-06T02:31:33.748Z,99036.40
2023-03-06T02:36:45.792Z,99037.60
2023-03-06T02:41:49.117Z,99037.00
2023-03-06T02:46:52.575Z,99035.80
2023-03-06T02:51:55.700Z,99037.80
2023-03-06T02:56:58.801Z,99029.00
2023-03-06T03:02:02.066Z,99029.20
2023-03-06T03:07:05.304Z,99031.40
2023-03-06T03:12:09.052Z,99027.80
2023-03-06T03:17:12.017Z,99029.20
2023-03-06T03:22:15.306Z,99028.20
2023-03-06T03:27:18.343Z,99021.00
2023-03-06T03:32:21.380Z,99018.00
2023-03-06T03:37:24.756Z,99018.20
2023-03-06T03:42:27.741Z,99017.20
2023-03-06T03:47:31.020Z,99015.40
2023-03-06T03:52:34.099Z,99014.80
2023-03-06T03:57:39.348Z,99011.80
2023-03-06T04:02:44.832Z,99007.60
2023-03-06T04:07:48.118Z,99005.80
2023-03-06T04:13:22.389Z,99006.20
2023-03-06T04:18:26.787Z,99012.20
2023-03-06T04:23:30.643Z,99003.80
2023-03-06T04:28:33.751Z,99001.60
2023-03-06T04:33:36.707Z,99003.00
2023-03-06T04:38:40.095Z,98998.60
2023-03-06T04:43:43.222Z,98995.60
2023-03-06T04:48:46.292Z,98995.40
2023-03-06T04:53:49.339Z,98991.40
2023-03-06T04:58:54.794Z,98987.80
2023-03-06T05:03:57.901Z,98980.80
2023-03-06T05:09:14.014Z,98985.60
2023-03-06T05:14:17.324Z,98994.00
2023-03-06T05:19:20.551Z,98986.40
2023-03-06T05:24:23.740Z,98990.60
2023-03-06T05:29:27.018Z,98989.80
2023-03-06T05:34:33.375Z,98995.40
2023-03-06T05:39:36.565Z,98995.40
2023-03-06T05:44:39.847Z,98992.00
2023-03-06T05:49:43.109Z,98998.40
2023-03-06T05:54:52.200Z,98992.00
2023-03-06T05:59:55.498Z,98988.60
2023-03-06T06:04:58.785Z,98990.20
2023-03-06T06:10:03.835Z,98988.20
2023-03-06T06:15:08.099Z,98991.20
2023-03-06T06:20:12.464Z,98992.80
2023-03-06T06:25:16.314Z,98999.40
2023-03-06T06:30:19.789Z,99000.20
2023-03-06T06:35:26.732Z,99000.40
2023-03-06T06:40:30.197Z,99001.60
2023-03-06T06:45:33.281Z,98999.20
2023-03-06T06:50:38.706Z,98999.60
2023-03-06T06:55:43.152Z,98989.40
2023-03-06T07:00:46.308Z,98996.00
2023-03-06T07:05:56.405Z,98996.40
2023-03-06T07:11:04.599Z,98993.20
2023-03-06T07:16:08.305Z,98997.40
2023-03-06T07:21:12.383Z,98997.20
2023-03-06T07:26:15.467Z,99004.00
2023-03-06T07:31:23.196Z,98997.00
2023-03-06T07:36:26.623Z,99004.60
2023-03-06T07:41:32.131Z,98997.40
2023-03-06T07:46:35.837Z,99006.40
2023-03-06T07:51:49.216Z,99010.80
2023-03-06T07:56:53.356Z,99011.20
2023-03-06T08:02:01.803Z,99009.80
2023-03-06T08:07:07.677Z,99005.40
2023-03-06T08:12:15.144Z,99011.20
2023-03-06T08:17:18.893Z,99013.40
2023-03-06T08:22:21.972Z,99016.40
2023-03-06T08:27:30.552Z,99014.80
2023-03-06T08:32:38.083Z,99023.80
2023-03-06T08:37:41.568Z,99015.60
2023-03-06T08:42:47.469Z,99017.20
2023-03-06T08:47:50.513Z,99023.00
2023-03-06T08:52:53.724Z,99032.20
2023-03-06T08:57:57.535Z,99027.60
2023-03-06T09:03:00.968Z,99028.80
2023-03-06T09:08:03.897Z,99030.60
2023-03-06T09:13:07.216Z,99028.60
2023-03-06T09:18:10.399Z,99027.80
2023-03-06T09:23:13.902Z,99028.80
2023-03-06T09:28:18.026Z,99023.80
2023-03-06T09:33:22.094Z,99028.20
2023-03-06T09:38:28.211Z,99018.60
2023-03-06T09:43:51.752Z,99021.80
2023-03-06T09:49:23.250Z,99025.20
2023-03-06T09:54:47.805Z,99019.00
2023-03-06T09:59:59.132Z,99014.00
2023-03-06T10:05:15.170Z,99000.80
2023-03-06T10:10:27.132Z,98998.80
2023-03-06T10:15:39.532Z,98993.60
2023-03-06T10:21:19.593Z,98991.00
2023-03-06T10:26:34.462Z,98990.20
2023-03-06T10:31:44.674Z,98984.20
2023-03-06T10:36:48.599Z,98988.80
2023-03-06T10:41:51.841Z,98978.20
2023-03-06T10:46:56.445Z,98981.80
2023-03-06T10:52:21.945Z,98978.40
2023-03-06T10:57:32.795Z,98981.80
2023-03-06T11:02:41.209Z,98976.60
2023-03-06T11:07:57.673Z,98979.60
2023-03-06T11:13:19.415Z,98977.40
2023-03-06T11:18:40.076Z,98967.20
2023-03-06T11:23:47.682Z,98959.40
2023-03-06T11:29:29.398Z,98963.00
2023-03-06T11:34:44.924Z,98957.60
2023-03-06T11:40:06.548Z,98958.00
2023-03-06T11:45:44.048Z,98954.00
2023-03-06T11:50:52.690Z,98955.00
2023-03-06T11:56:29.462Z,98952.80
2023-03-06T12:01:37.628Z,98950.80
2023-03-06T12:06:41.058Z,98949.40
2023-03-06T12:11:59.318Z,98956.00
2023-03-06T12:17:08.219Z,98951.80
2023-03-06T12:22:57.520Z,98947.80
2023-03-06T12:28:11.549Z,98949.80
2023-03-06T12:34:07.782Z,98954.20
2023-03-06T12:39:54.604Z,98950.00
2023-03-06T12:45:33.208Z,98946.80
2023-03-06T12:50:38.298Z,98951.40
2023-03-06T12:55:49.210Z,98947.20
2023-03-06T13:01:20.205Z,98940.80
2023-03-06T13:07:03.865Z,98940.00
2023-03-06T13:12:16.032Z,98939.40
2023-03-06T13:17:39.230Z,98936.40
2023-03-06T13:22:46.294Z,98934.40
2023-03-06T13:27:52.273Z,98934.60
2023-03-06T13:32:56.574Z,98926.00
2023-03-06T13:38:00.913Z,98922.60
2023-03-06T13:43:09.072Z,98926.60
2023-03-06T13:48:45.805Z,98924.40
2023-03-06T13:54:17.226Z,98920.60
2023-03-06T14:00:09.528Z,98921.80
2023-03-06T14:05:17.010Z,98922.80
2023-03-06T14:10:26.211Z,98919.60
2023-03-06T14:15:45.479Z,98917.80
2023-03-06T14:21:04.777Z,98919.60
2023-03-06T14:26:24.615Z,98920.80
2023-03-06T14:31:41.304Z,98916.40
2023-03-06T14:36:51.401Z,98915.80
2023-03-06T14:42:25.915Z,98909.00
2023-03-06T14:47:42.883Z,98904.40
2023-03-06T14:52:47.088Z,98906.40
2023-03-06T14:57:58.518Z,98906.00
2023-03-06T15:03:06.795Z,98906.40
2023-03-06T15:08:10.349Z,98903.40
2023-03-06T15:13:26.610Z,98905.80
2023-03-06T15:18:39.089Z,98908.80
2023-03-06T15:23:48.541Z,98907.00
2023-03-06T15:29:23.504Z,98907.60
2023-03-06T15:34:41.933Z,98906.20
2023-03-06T15:39:48.924Z,98909.20
2023-03-06T15:45:00.528Z,98903.40
2023-03-06T15:50:04.376Z,98902.00
2023-03-06T15:55:20.220Z,98904.00
2023-03-06T16:00:30.932Z,98902.60
2023-03-06T16:05:34.155Z,98898.80
2023-03-06T16:10:46.709Z,98899.20
2023-03-06T16:15:54.534Z,98899.00
2023-03-06T16:20:57.701Z,98905.20
2023-03-06T16:26:01.517Z,98904.20
2023-03-06T16:31:07.569Z,98912.00
2023-03-06T16:36:27.826Z,98905.40
2023-03-06T16:41:31.463Z,98900.80
2023-03-06T16:46:42.932Z,98908.80
2023-03-06T16:51:56.104Z,98903.00
2023-03-06T16:57:00.676Z,98909.20
2023-03-06T17:02:03.933Z,98905.20
2023-03-06T17:07:07.214Z,98907.00
2023-03-06T17:12:10.381Z,98908.20
2023-03-06T17:17:13.479Z,98915.20
2023-03-06T17:22:19.036Z,98919.40
2023-03-06T17:27:23.058Z,98921.80
2023-03-06T17:32:27.327Z,98924.20
2023-03-06T17:37:32.235Z,98917.60
2023-03-06T17:42:59.249Z,98919.60
2023-03-06T17:48:03.624Z,98918.80
2023-03-06T17:53:07.086Z,98919.40
2023-03-06T17:58:12.318Z,98915.00
2023-03-06T18:03:22.481Z,98918.00
2023-03-06T18:08:38.585Z,98916.20
2023-03-06T18:13:46.851Z,98919.40
2023-03-06T18:18:58.492Z,98919.00
2023-03-06T18:24:01.452Z,98924.40
2023-03-06T18:29:05.143Z,98926.80
2023-03-06T18:34:13.481Z,98928.40
2023-03-06T18:39:16.688Z,98929.40
2023-03-06T18:44:23.880Z,98931.20
2023-03-06T18:49:35.293Z,98931.00
2023-03-06T18:54:39.014Z,98938.00
2023-03-06T18:59:43.468Z,98930.00
2023-03-06T19:04:48.099Z,98930.60
2023-03-06T19:09:56.088Z,98930.80
2023-03-06T19:14:59.104Z,98932.80
2023-03-06T19:20:05.003Z,98932.80
2023-03-06T19:25:10.125Z,98928.20
2023-03-06T19:30:15.717Z,98934.40
2023-03-06T19:35:21.952Z,98929.00
2023-03-06T19:40:25.614Z,98930.00
2023-03-06T19:45:31.064Z,98926.20
2023-03-06T19:50:34.697Z,98929.80
2023-03-06T19:55:38.587Z,98927.80
2023-03-06T20:00:42.064Z,98927.00
2023-03-06T20:05:48.121Z,98930.40
2023-03-06T20:10:51.048Z,98931.80
2023-03-06T20:15:55.160Z,98928.20
2023-03-06T20:21:03.869Z,98929.80
2023-03-06T20:26:11.932Z,98933.60
2023-03-06T20:31:19.177Z,98931.80
2023-03-06T20:36:31.342Z,98928.20
2023-03-06T20:41:35.532Z,98935.60
2023-03-06T20:46:39.987Z,98934.60
2023-03-06T20:51:43.994Z,98928.20
2023-03-06T20:56:49.164Z,98938.60
2023-03-06T21:01:53.330Z,98931.20
2023-03-06T21:06:56.448Z,98929.60
2023-03-06T21:12:00.265Z,98933.60
2023-03-06T21:17:03.406Z,98930.00
2023-03-06T21:22:06.503Z,98930.00
2023-03-06T21:27:09.620Z,98929.20
2023-03-06T21:32:12.616Z,98926.40
2023-03-06T21:37:15.694Z,98928.00
2023-03-06T21:42:18.640Z,98929.60
2023-03-06T21:47:21.542Z,98927.60
2023-03-06T21:52:26.465Z,98930.00
2023-03-06T21:57:29.630Z,98928.60
2023-03-06T22:02:32.499Z,98928.20
2023-03-06T22:07:39.367Z,98929.20
2023-03-06T22:12:42.330Z,98930.00
2023-03-06T22:17:45.541Z,98931.60
2023-03-06T22:22:48.452Z,98931.80
2023-03-06T22:27:51.451Z,98930.80
2023-03-06T22:32:54.615Z,98932.20
2023-03-06T22:37:58.781Z,98926.40
2023-03-06T22:43:01.803Z,98928.60
2023-03-06T22:48:11.063Z,98926.60
2023-03-06T22:53:14.246Z,98930.00
2023-03-06T22:58:17.142Z,98925.20
2023-03-06T23:03:20.004Z,98919.60
2023-03-06T23:08:23.044Z,98918.40
2023-03-06T23:13:26.082Z,98917.00
2023-03-06T23:18:29.887Z,98910.60
2023-03-06T23:23:32.779Z,98914.80
2023-03-06T23:28:36.002Z,98916.20
2023-03-06T23:33:39.200Z,98915.00
2023-03-06T23:38:42.789Z,98913.20
2023-03-06T23:43:47.891Z,98915.40
2023-03-06T23:48:50.792Z,98917.80
2023-03-06T23:53:58.305Z,98918.40
2023-03-06T23:59:01.452Z,98916.80
